Time;durP1;ratioP1;P1;durP2;ratioP2;P2;SDS_P1;SDS_P2;PMS_P1;PMS_P2;Temp;Humidity;BMP_temperature;BMP_pressure;BME280_temperature;BME280_humidity;BME280_pressure;Samples;Min_cycle;Max_cycle;Signal;HPM_P1;HPM_P2
2021/10/06 00:01:00;;;;;;;18.40;6.38;;;;;;;;;;5077734;28;20048;-83
2021/10/06 00:03:30;;;;;;;15.60;5.80;;;;;;;;;;5078040;28;20045;-85
2021/10/06 00:05:57;;;;;;;17.33;6.97;;;;;;;;;;5096132;28;20109;-84
2021/10/06 00:08:24;;;;;;;13.00;6.20;;;;;;;;;;5062807;28;20333;-84
2021/10/06 00:10:50;;;;;;;14.10;6.40;;;;;;;;;;5063402;28;20045;-84
2021/10/06 00:13:17;;;;;;;20.08;6.40;;;;;;;;;;5062580;28;20080;-84
2021/10/06 00:15:45;;;;;;;14.10;5.88;;;;;;;;;;5064389;28;20066;-83
2021/10/06 00:18:12;;;;;;;14.68;7.50;;;;;;;;;;5064405;28;20167;-84
2021/10/06 00:20:41;;;;;;;13.82;7.05;;;;;;;;;;5081204;28;20317;-84
2021/10/06 00:23:08;;;;;;;15.27;6.55;;;;;;;;;;5063544;28;20372;-84
2021/10/06 00:25:35;;;;;;;13.10;6.50;;;;;;;;;;5079810;28;20062;-84
2021/10/06 00:28:02;;;;;;;16.13;6.60;;;;;;;;;;5062805;28;20337;-84
2021/10/06 00:30:28;;;;;;;14.85;6.63;;;;;;;;;;5063726;28;20055;-84
2021/10/06 00:32:55;;;;;;;12.90;7.47;;;;;;;;;;5104662;28;20044;-84
2021/10/06 00:35:22;;;;;;;13.68;6.55;;;;;;;;;;5102874;28;20230;-84
2021/10/06 00:37:48;;;;;;;20.48;7.75;;;;;;;;;;5103391;28;20062;-84
2021/10/06 00:40:15;;;;;;;15.13;7.53;;;;;;;;;;5121649;28;20048;-84
2021/10/06 00:42:42;;;;;;;13.68;7.97;;;;;;;;;;5121380;28;20047;-84
2021/10/06 00:45:12;;;;;;;16.70;7.88;;;;;;;;;;5102556;28;20054;-84
2021/10/06 00:47:38;;;;;;;17.55;7.65;;;;;;;;;;5103043;28;20051;-84
2021/10/06 00:50:05;;;;;;;15.10;7.40;;;;;;;;;;5103767;28;20054;-85
2021/10/06 00:52:32;;;;;;;17.50;8.52;;;;;;;;;;5103005;28;20442;-84
2021/10/06 00:55:02;;;;;;;13.73;7.68;;;;;;;;;;5119334;28;20055;-84
2021/10/06 00:57:28;;;;;;;14.93;8.75;;;;;;;;;;5102756;28;20048;-84
2021/10/06 00:59:56;;;;;;;16.58;7.60;;;;;;;;;;5102029;28;20058;-85
2021/10/06 01:02:22;;;;;;;21.60;9.13;;;;;;;;;;5120379;28;20051;-84
2021/10/06 01:04:58;;;;;;;16.77;8.23;;;;;;;;;;5103074;28;20048;-84
2021/10/06 01:07:25;;;;;;;15.43;8.63;;;;;;;;;;5098488;28;20048;-84
2021/10/06 01:09:52;;;;;;;11.55;7.72;;;;;;;;;;5100147;28;20048;-84
2021/10/06 01:12:25;;;;;;;15.80;8.73;;;;;;;;;;5099311;28;20481;-84
2021/10/06 01:14:52;;;;;;;16.30;8.50;;;;;;;;;;5099085;28;20044;-84
2021/10/06 01:17:18;;;;;;;15.13;9.07;;;;;;;;;;5101627;28;20055;-84
2021/10/06 01:19:45;;;;;;;17.45;9.07;;;;;;;;;;5100679;28;20113;-84
2021/10/06 01:22:15;;;;;;;19.55;9.50;;;;;;;;;;5105395;28;20419;-84
2021/10/06 01:24:41;;;;;;;18.77;9.35;;;;;;;;;;5110997;28;20052;-84
2021/10/06 01:27:08;;;;;;;16.30;9.55;;;;;;;;;;5110344;28;20048;-84
2021/10/06 01:29:35;;;;;;;22.08;9.43;;;;;;;;;;5103511;28;20048;-85
2021/10/06 01:32:09;;;;;;;22.25;9.73;;;;;;;;;;5095567;28;20225;-85
2021/10/06 01:34:36;;;;;;;17.90;11.48;;;;;;;;;;5080043;28;20060;-85
2021/10/06 01:37:03;;;;;;;20.05;10.88;;;;;;;;;;5081259;28;20204;-85
2021/10/06 01:39:29;;;;;;;24.27;10.65;;;;;;;;;;5079279;28;20071;-85
2021/10/06 01:41:58;;;;;;;20.80;9.93;;;;;;;;;;5079525;28;20052;-85
2021/10/06 01:44:25;;;;;;;17.02;10.20;;;;;;;;;;5080017;28;20217;-85
2021/10/06 01:46:52;;;;;;;16.63;9.77;;;;;;;;;;5079317;28;20094;-85
2021/10/06 01:49:18;;;;;;;24.10;9.82;;;;;;;;;;5079740;28;20056;-84
2021/10/06 01:51:45;;;;;;;19.73;10.18;;;;;;;;;;5079129;28;20048;-84
2021/10/06 01:54:12;;;;;;;20.42;9.60;;;;;;;;;;5078654;28;20059;-84
2021/10/06 01:56:42;;;;;;;24.42;10.77;;;;;;;;;;5081628;28;20074;-84
2021/10/06 01:59:08;;;;;;;22.70;9.73;;;;;;;;;;5080195;28;20052;-85
2021/10/06 02:01:35;;;;;;;18.88;10.25;;;;;;;;;;5078326;28;20097;-84
2021/10/06 02:04:02;;;;;;;18.60;10.90;;;;;;;;;;5076756;28;20102;-84
2021/10/06 02:06:28;;;;;;;17.13;9.43;;;;;;;;;;5080839;28;20060;-84
2021/10/06 02:08:55;;;;;;;16.48;10.18;;;;;;;;;;5067906;28;20044;-84
2021/10/06 02:11:22;;;;;;;18.95;9.90;;;;;;;;;;5077620;28;20140;-84
2021/10/06 02:13:48;;;;;;;24.00;10.93;;;;;;;;;;5061340;28;20061;-84
2021/10/06 02:16:15;;;;;;;19.88;10.00;;;;;;;;;;5060382;28;20040;-84
2021/10/06 02:18:42;;;;;;;16.20;9.27;;;;;;;;;;5086874;28;20066;-84
2021/10/06 02:21:12;;;;;;;18.63;9.65;;;;;;;;;;5101427;28;20048;-84
2021/10/06 02:23:38;;;;;;;17.88;9.88;;;;;;;;;;5080551;28;20052;-84
2021/10/06 02:26:05;;;;;;;19.40;10.20;;;;;;;;;;5075987;28;20056;-84
2021/10/06 02:28:32;;;;;;;14.30;9.32;;;;;;;;;;5081035;28;20052;-84
2021/10/06 02:30:58;;;;;;;22.90;9.88;;;;;;;;;;5063909;28;20044;-85
2021/10/06 02:33:25;;;;;;;17.48;10.00;;;;;;;;;;5065188;28;20079;-84
2021/10/06 02:35:52;;;;;;;21.02;9.77;;;;;;;;;;5067827;28;20049;-85
2021/10/06 02:38:18;;;;;;;20.50;9.15;;;;;;;;;;5080160;28;20056;-85
2021/10/06 02:40:45;;;;;;;18.58;9.90;;;;;;;;;;5105015;28;20048;-84
2021/10/06 02:43:14;;;;;;;18.25;9.52;;;;;;;;;;5114516;28;20036;-84
2021/10/06 02:45:41;;;;;;;29.08;9.70;;;;;;;;;;5080503;28;20043;-84
2021/10/06 02:48:07;;;;;;;20.23;9.95;;;;;;;;;;5075708;28;20123;-85
2021/10/06 02:50:34;;;;;;;26.73;9.98;;;;;;;;;;5064492;28;20071;-85
2021/10/06 02:53:01;;;;;;;17.83;10.57;;;;;;;;;;5082322;28;20060;-84
2021/10/06 02:55:28;;;;;;;20.77;10.07;;;;;;;;;;5094034;28;20102;-84
2021/10/06 02:57:55;;;;;;;16.70;8.90;;;;;;;;;;5099746;28;20048;-85
2021/10/06 03:00:22;;;;;;;18.83;9.43;;;;;;;;;;5068416;28;20045;-85
2021/10/06 03:02:48;;;;;;;18.73;8.48;;;;;;;;;;5062427;28;20167;-85
2021/10/06 03:05:15;;;;;;;14.32;7.40;;;;;;;;;;5083829;28;20040;-85
2021/10/06 03:07:42;;;;;;;17.00;7.35;;;;;;;;;;5072136;28;20332;-85
2021/10/06 03:10:10;;;;;;;13.05;7.03;;;;;;;;;;5061146;28;20059;-85
2021/10/06 03:12:36;;;;;;;14.60;7.15;;;;;;;;;;5074736;28;20048;-85
2021/10/06 03:15:04;;;;;;;17.02;7.07;;;;;;;;;;5078426;28;20075;-85
2021/10/06 03:17:34;;;;;;;13.32;6.88;;;;;;;;;;5060917;28;20166;-85
2021/10/06 03:20:00;;;;;;;15.73;6.13;;;;;;;;;;5069644;28;20416;-85
2021/10/06 03:22:27;;;;;;;9.52;4.80;;;;;;;;;;5080312;28;20048;-84
2021/10/06 03:24:53;;;;;;;10.23;4.88;;;;;;;;;;5081334;28;20061;-84
2021/10/06 03:27:29;;;;;;;12.73;5.10;;;;;;;;;;5074841;28;20088;-84
2021/10/06 03:29:56;;;;;;;13.88;5.80;;;;;;;;;;5061792;28;20363;-84
2021/10/06 03:32:23;;;;;;;11.13;4.90;;;;;;;;;;5066326;28;20049;-84
2021/10/06 03:34:50;;;;;;;8.10;4.80;;;;;;;;;;5075632;28;20041;-84
2021/10/06 03:37:16;;;;;;;11.93;5.53;;;;;;;;;;5075316;28;20047;-84
2021/10/06 03:39:43;;;;;;;14.63;5.32;;;;;;;;;;5067236;28;20149;-84
2021/10/06 03:42:10;;;;;;;10.75;5.40;;;;;;;;;;5075011;28;20059;-84
2021/10/06 03:44:37;;;;;;;16.88;5.13;;;;;;;;;;5078340;28;20048;-84
2021/10/06 03:47:24;;;;;;;11.30;5.47;;;;;;;;;;5063334;28;20071;-84
2021/10/06 03:49:54;;;;;;;10.52;5.03;;;;;;;;;;5070749;28;20178;-85
2021/10/06 03:52:23;;;;;;;14.18;5.88;;;;;;;;;;5070254;28;20135;-84
2021/10/06 03:55:02;;;;;;;11.82;5.15;;;;;;;;;;5061649;28;20098;-84
2021/10/06 03:57:34;;;;;;;13.25;5.65;;;;;;;;;;5068853;28;20040;-84
2021/10/06 04:00:05;;;;;;;10.55;5.78;;;;;;;;;;5057037;28;20068;-85
2021/10/06 04:02:44;;;;;;;13.07;5.95;;;;;;;;;;5064778;28;20333;-85
2021/10/06 04:05:32;;;;;;;15.05;6.63;;;;;;;;;;5058766;28;20048;-82
2021/10/06 04:08:08;;;;;;;14.05;6.10;;;;;;;;;;5075224;28;20060;-83
2021/10/06 04:10:40;;;;;;;12.30;6.20;;;;;;;;;;5078689;28;20036;-84
2021/10/06 04:13:06;;;;;;;11.85;6.60;;;;;;;;;;5060262;28;20064;-84
2021/10/06 04:15:38;;;;;;;12.27;6.45;;;;;;;;;;5066482;28;20059;-83
2021/10/06 04:18:22;;;;;;;12.60;6.88;;;;;;;;;;5077765;28;20044;-83
2021/10/06 04:20:52;;;;;;;19.55;7.32;;;;;;;;;;5068081;28;20315;-83
2021/10/06 04:23:21;;;;;;;18.20;6.97;;;;;;;;;;5065373;28;20076;-86
2021/10/06 04:25:54;;;;;;;17.65;7.57;;;;;;;;;;5076443;28;20052;-85
2021/10/06 04:28:27;;;;;;;15.65;7.60;;;;;;;;;;5059402;28;20157;-85
2021/10/06 04:30:56;;;;;;;15.07;7.60;;;;;;;;;;5056596;28;20083;-85
2021/10/06 04:33:25;;;;;;;14.05;7.13;;;;;;;;;;5086064;28;20093;-84
2021/10/06 04:35:52;;;;;;;15.98;8.25;;;;;;;;;;5061997;28;20344;-84
2021/10/06 04:38:23;;;;;;;20.05;8.32;;;;;;;;;;5059149;28;20044;-84
2021/10/06 04:40:50;;;;;;;17.75;8.13;;;;;;;;;;5076570;28;20079;-84
2021/10/06 04:43:19;;;;;;;14.80;8.20;;;;;;;;;;5068751;28;20048;-84
2021/10/06 04:45:46;;;;;;;15.68;8.52;;;;;;;;;;5079080;28;20386;-84
2021/10/06 04:48:15;;;;;;;22.13;7.70;;;;;;;;;;5089970;28;20056;-84
2021/10/06 04:50:47;;;;;;;16.83;8.85;;;;;;;;;;5062562;28;20072;-84
2021/10/06 04:53:17;;;;;;;14.18;8.82;;;;;;;;;;5073720;28;20106;-85
2021/10/06 04:55:57;;;;;;;22.90;8.82;;;;;;;;;;5074830;28;20239;-85
2021/10/06 04:58:27;;;;;;;23.38;8.70;;;;;;;;;;5074642;28;20040;-84
2021/10/06 05:00:57;;;;;;;16.33;8.32;;;;;;;;;;5064874;28;20052;-85
2021/10/06 05:03:31;;;;;;;15.68;8.35;;;;;;;;;;5060266;28;20067;-84
2021/10/06 05:05:58;;;;;;;14.65;8.32;;;;;;;;;;5054912;28;20244;-84
2021/10/06 05:08:24;;;;;;;16.08;8.38;;;;;;;;;;5071793;28;20271;-84
2021/10/06 05:11:00;;;;;;;14.57;8.32;;;;;;;;;;5089548;28;20060;-84
2021/10/06 05:13:29;;;;;;;16.60;8.45;;;;;;;;;;5065781;28;20048;-83
2021/10/06 05:16:05;;;;;;;14.93;8.18;;;;;;;;;;5056312;28;20147;-85
2021/10/06 05:18:52;;;;;;;16.77;8.20;;;;;;;;;;5085592;28;20481;-83
2021/10/06 05:21:21;;;;;;;14.13;7.55;;;;;;;;;;5064349;28;20044;-84
2021/10/06 05:23:51;;;;;;;17.00;7.70;;;;;;;;;;5083034;28;20371;-84
2021/10/06 05:26:18;;;;;;;14.20;7.72;;;;;;;;;;5080098;28;20056;-84
2021/10/06 05:28:44;;;;;;;14.65;7.30;;;;;;;;;;5080485;28;20249;-84
2021/10/06 05:31:21;;;;;;;22.38;7.10;;;;;;;;;;5061467;28;20044;-84
2021/10/06 05:33:58;;;;;;;16.33;7.60;;;;;;;;;;5081595;28;20102;-83
2021/10/06 05:36:24;;;;;;;17.95;7.63;;;;;;;;;;5065690;28;20107;-84
2021/10/06 05:38:51;;;;;;;17.60;7.38;;;;;;;;;;5080623;28;20084;-85
2021/10/06 05:41:21;;;;;;;12.85;7.82;;;;;;;;;;5056678;28;20051;-85
2021/10/06 05:43:48;;;;;;;13.27;7.80;;;;;;;;;;5090123;28;20113;-85
2021/10/06 05:46:26;;;;;;;14.18;7.00;;;;;;;;;;5080686;28;20403;-83
2021/10/06 05:48:57;;;;;;;17.83;7.72;;;;;;;;;;5088384;28;20292;-83
2021/10/06 05:51:32;;;;;;;14.88;8.00;;;;;;;;;;5089059;28;20103;-85
2021/10/06 05:54:22;;;;;;;17.45;6.90;;;;;;;;;;5075565;28;20100;-84
2021/10/06 05:56:52;;;;;;;13.32;6.95;;;;;;;;;;5084304;28;20059;-84
2021/10/06 05:59:22;;;;;;;15.43;6.80;;;;;;;;;;5065829;28;20051;-84
2021/10/06 06:01:51;;;;;;;11.32;6.57;;;;;;;;;;5070940;28;20091;-84
2021/10/06 06:04:31;;;;;;;14.80;6.65;;;;;;;;;;5071199;28;20059;-85
2021/10/06 06:07:14;;;;;;;11.00;5.47;;;;;;;;;;5064103;28;20160;-84
2021/10/06 06:09:58;;;;;;;12.55;5.47;;;;;;;;;;5078997;28;20255;-84
2021/10/06 06:12:26;;;;;;;13.02;5.65;;;;;;;;;;5065169;28;20051;-85
2021/10/06 06:15:02;;;;;;;12.35;4.97;;;;;;;;;;5073584;28;20173;-84
2021/10/06 06:17:41;;;;;;;9.20;4.13;;;;;;;;;;5073966;28;20044;-84
2021/10/06 06:20:15;;;;;;;14.43;4.75;;;;;;;;;;5097555;28;20040;-85
2021/10/06 06:22:51;;;;;;;11.05;3.80;;;;;;;;;;5061886;28;20267;-85
2021/10/06 06:25:31;;;;;;;10.90;3.75;;;;;;;;;;5068270;28;20048;-85
2021/10/06 06:28:10;;;;;;;12.60;3.35;;;;;;;;;;5050405;28;20143;-85
2021/10/06 06:30:49;;;;;;;9.10;3.10;;;;;;;;;;5050625;28;20045;-85
2021/10/06 06:33:33;;;;;;;10.70;3.35;;;;;;;;;;5061753;28;20109;-84
2021/10/06 06:36:00;;;;;;;9.23;3.47;;;;;;;;;;5064912;28;20225;-84
2021/10/06 06:38:28;;;;;;;14.00;3.40;;;;;;;;;;5083187;28;20044;-84
2021/10/06 06:41:04;;;;;;;9.75;3.38;;;;;;;;;;5062242;28;20167;-84
2021/10/06 06:43:31;;;;;;;12.07;4.10;;;;;;;;;;5085674;28;20638;-85
2021/10/06 06:46:04;;;;;;;9.45;3.47;;;;;;;;;;5054437;28;20182;-84
2021/10/06 06:48:33;;;;;;;7.53;3.42;;;;;;;;;;5077200;28;20237;-85
2021/10/06 06:51:11;;;;;;;13.98;4.15;;;;;;;;;;5054366;28;20055;-83
2021/10/06 06:53:38;;;;;;;9.27;3.25;;;;;;;;;;5056044;28;20040;-85
2021/10/06 06:56:08;;;;;;;17.92;4.45;;;;;;;;;;5078298;28;20044;-85
2021/10/06 06:58:37;;;;;;;7.90;3.00;;;;;;;;;;5062909;28;20430;-83
2021/10/06 07:01:17;;;;;;;8.52;3.20;;;;;;;;;;5068870;28;20054;-84
2021/10/06 07:04:06;;;;;;;13.32;3.42;;;;;;;;;;5081857;28;20059;-83
2021/10/06 07:06:56;;;;;;;13.18;3.50;;;;;;;;;;5057689;28;20083;-84
2021/10/06 07:09:36;;;;;;;12.35;3.47;;;;;;;;;;5084361;28;20319;-83
2021/10/06 07:12:05;;;;;;;11.73;2.92;;;;;;;;;;5083944;28;20251;-84
2021/10/06 07:14:49;;;;;;;9.60;3.38;;;;;;;;;;5057201;28;20258;-84
2021/10/06 07:17:20;;;;;;;7.45;2.92;;;;;;;;;;5086301;28;20048;-84
2021/10/06 07:19:54;;;;;;;7.65;3.75;;;;;;;;;;5060762;28;20070;-84
2021/10/06 07:22:31;;;;;;;9.05;4.68;;;;;;;;;;5068881;28;20224;-86
2021/10/06 07:25:07;;;;;;;9.30;3.00;;;;;;;;;;5060154;28;20557;-84
2021/10/06 07:27:36;;;;;;;8.43;3.00;;;;;;;;;;5069559;28;20527;-85
2021/10/06 07:30:10;;;;;;;9.98;2.58;;;;;;;;;;5071928;28;20049;-85
2021/10/06 07:32:43;;;;;;;7.78;3.22;;;;;;;;;;5067955;28;20297;-85
2021/10/06 07:35:11;;;;;;;7.88;3.05;;;;;;;;;;5069659;28;20044;-85
2021/10/06 07:37:55;;;;;;;15.70;3.20;;;;;;;;;;5063567;28;20055;-84
2021/10/06 07:40:32;;;;;;;6.95;3.03;;;;;;;;;;5071964;28;20055;-84
2021/10/06 07:43:02;;;;;;;8.20;2.42;;;;;;;;;;5089348;28;20271;-84
2021/10/06 07:45:38;;;;;;;15.67;3.00;;;;;;;;;;5068280;28;20047;-85
2021/10/06 07:48:08;;;;;;;10.57;3.88;;;;;;;;;;5047399;28;20048;-85
2021/10/06 07:50:40;;;;;;;9.95;2.90;;;;;;;;;;5064772;28;20052;-84
2021/10/06 07:53:11;;;;;;;10.07;2.47;;;;;;;;;;5073612;28;20044;-85
2021/10/06 07:55:41;;;;;;;7.95;2.40;;;;;;;;;;5075367;28;20048;-85
2021/10/06 07:58:16;;;;;;;5.03;2.08;;;;;;;;;;5075527;28;20050;-85
2021/10/06 08:01:23;;;;;;;7.65;2.40;;;;;;;;;;5073490;28;20116;-83
2021/10/06 08:04:10;;;;;;;4.20;1.98;;;;;;;;;;5087534;28;20389;-83
2021/10/06 08:06:38;;;;;;;7.97;2.10;;;;;;;;;;5069152;28;20288;-83
2021/10/06 08:09:11;;;;;;;4.95;1.80;;;;;;;;;;5070005;28;20048;-84
2021/10/06 08:11:46;;;;;;;7.18;2.25;;;;;;;;;;5065771;28;20048;-84
2021/10/06 08:14:16;;;;;;;7.50;2.00;;;;;;;;;;5087285;28;20210;-84
2021/10/06 08:20:21;;;;;;;6.55;2.42;;;;;;;;;;5123915;28;20084;-83
2021/10/06 08:22:52;;;;;;;8.68;2.45;;;;;;;;;;5110572;28;20071;-83
2021/10/06 08:25:24;;;;;;;7.00;2.33;;;;;;;;;;5105216;28;20040;-83
2021/10/06 08:28:17;;;;;;;4.43;1.87;;;;;;;;;;5022330;28;20126;-84
2021/10/06 08:30:50;;;;;;;12.52;2.25;;;;;;;;;;5060783;28;20341;-84
2021/10/06 08:33:46;;;;;;;5.75;1.95;;;;;;;;;;5066079;28;20571;-84
2021/10/06 08:36:16;;;;;;;9.13;2.25;;;;;;;;;;5034798;28;20048;-83
2021/10/06 08:38:56;;;;;;;7.65;2.33;;;;;;;;;;5054670;28;20355;-84
2021/10/06 08:41:27;;;;;;;8.00;1.52;;;;;;;;;;5087878;28;20408;-83
2021/10/06 08:44:09;;;;;;;;;;;;;;;;;;;;;
2021/10/06 08:46:43;;;;;;;8.27;1.30;;;;;;;;;;5080350;28;20264;-85
2021/10/06 08:49:20;;;;;;;9.73;2.13;;;;;;;;;;5066612;28;20059;-85
2021/10/06 08:51:47;;;;;;;5.57;1.60;;;;;;;;;;5052561;28;20106;-84
2021/10/06 08:54:26;;;;;;;;;;;;;;;;;;5068603;28;20111;-84
2021/10/06 08:57:32;;;;;;;4.45;1.50;;;;;;;;;;5064887;28;20392;-84
2021/10/06 09:00:05;;;;;;;8.63;2.13;;;;;;;;;;5062385;28;20080;-85
2021/10/06 09:02:37;;;;;;;9.93;2.60;;;;;;;;;;5045141;28;20173;-85
2021/10/06 09:05:09;;;;;;;7.10;2.25;;;;;;;;;;5045679;28;20466;-85
2021/10/06 09:07:57;;;;;;;9.23;2.03;;;;;;;;;;5052296;28;20098;-85
2021/10/06 09:10:27;;;;;;;10.85;1.92;;;;;;;;;;5047916;28;20063;-83
2021/10/06 09:13:16;;;;;;;11.95;2.30;;;;;;;;;;5048446;28;20055;-84
2021/10/06 09:16:09;;;;;;;7.30;2.03;;;;;;;;;;5056035;28;20053;-84
2021/10/06 09:19:01;;;;;;;9.95;2.15;;;;;;;;;;5098308;28;20051;-84
2021/10/06 09:21:53;;;;;;;5.63;1.80;;;;;;;;;;5078960;28;20144;-84
2021/10/06 09:27:54;;;;;;;9.55;2.90;;;;;;;;;;5090505;28;20031;-84
2021/10/06 09:30:35;;;;;;;14.02;2.88;;;;;;;;;;5082515;28;20054;-84
2021/10/06 09:33:09;;;;;;;14.52;2.80;;;;;;;;;;5086436;28;20245;-84
2021/10/06 09:35:37;;;;;;;11.35;2.75;;;;;;;;;;5085662;28;20127;-84
2021/10/06 09:38:14;;;;;;;9.15;2.53;;;;;;;;;;5081333;28;20142;-84
2021/10/06 09:40:48;;;;;;;12.98;3.03;;;;;;;;;;5095132;28;20085;-85
2021/10/06 09:43:38;;;;;;;5.95;2.30;;;;;;;;;;5097422;28;20306;-83
2021/10/06 09:46:19;;;;;;;;;;;;;;;;;;;;;
2021/10/06 09:48:54;;;;;;;9.10;2.00;;;;;;;;;;5087232;28;20251;-84
2021/10/06 09:51:31;;;;;;;9.20;2.30;;;;;;;;;;5066553;28;20135;-84
2021/10/06 09:54:10;;;;;;;7.82;2.20;;;;;;;;;;5060427;28;20827;-85
2021/10/06 09:56:45;;;;;;;10.98;2.45;;;;;;;;;;5055103;28;20239;-84
2021/10/06 09:59:15;;;;;;;8.55;2.30;;;;;;;;;;5080035;28;20536;-85
2021/10/06 10:01:51;;;;;;;8.63;2.30;;;;;;;;;;5049817;28;20300;-85
2021/10/06 10:04:23;;;;;;;6.82;2.13;;;;;;;;;;5051810;28;20055;-84
2021/10/06 10:06:52;;;;;;;11.07;2.65;;;;;;;;;;5066458;28;20162;-84
2021/10/06 10:09:45;;;;;;;7.78;2.30;;;;;;;;;;5072251;28;20282;-83
2021/10/06 10:12:41;;;;;;;5.22;1.98;;;;;;;;;;5069254;28;20347;-84
2021/10/06 10:15:19;;;;;;;6.32;2.22;;;;;;;;;;5081067;28;20281;-84
2021/10/06 10:18:03;;;;;;;6.95;2.38;;;;;;;;;;5073318;28;20054;-83
2021/10/06 10:20:38;;;;;;;6.43;2.45;;;;;;;;;;5076740;28;20407;-84
2021/10/06 10:23:26;;;;;;;9.52;2.63;;;;;;;;;;5063775;28;20463;-85
2021/10/06 10:25:52;;;;;;;9.82;2.25;;;;;;;;;;5069240;28;20147;-84
2021/10/06 10:28:23;;;;;;;9.90;2.20;;;;;;;;;;5084846;28;20486;-85
2021/10/06 10:31:06;;;;;;;4.35;1.92;;;;;;;;;;5066705;28;20048;-84
2021/10/06 10:34:08;;;;;;;6.20;1.42;;;;;;;;;;5053643;28;20512;-85
2021/10/06 10:36:44;;;;;;;3.50;1.30;;;;;;;;;;5070007;28;20068;-84
2021/10/06 10:39:36;;;;;;;7.50;1.75;;;;;;;;;;5050471;28;20044;-84
2021/10/06 10:42:07;;;;;;;3.15;1.23;;;;;;;;;;5075340;28;20151;-84
2021/10/06 10:44:41;;;;;;;8.68;1.98;;;;;;;;;;5080097;28;20040;-85
2021/10/06 10:47:13;;;;;;;6.03;1.42;;;;;;;;;;5067353;28;20200;-84
2021/10/06 10:49:48;;;;;;;7.40;1.08;;;;;;;;;;5064814;28;20063;-84
2021/10/06 10:52:38;;;;;;;4.45;1.20;;;;;;;;;;5086686;28;20422;-85
2021/10/06 10:55:16;;;;;;;7.75;2.10;;;;;;;;;;5082573;28;20040;-85
2021/10/06 10:58:17;;;;;;;7.75;1.63;;;;;;;;;;5070385;28;20294;-86
2021/10/06 11:00:48;;;;;;;6.03;1.42;;;;;;;;;;5061332;28;20040;-85
2021/10/06 11:03:21;;;;;;;4.55;1.33;;;;;;;;;;5093015;28;20101;-83
2021/10/06 11:06:01;;;;;;;5.40;1.60;;;;;;;;;;5078376;28;20056;-84
2021/10/06 11:08:35;;;;;;;9.48;1.55;;;;;;;;;;5056618;28;20514;-84
2021/10/06 11:11:18;;;;;;;7.78;1.90;;;;;;;;;;5089727;28;20052;-84
2021/10/06 11:13:46;;;;;;;4.47;1.13;;;;;;;;;;5072789;28;20392;-84
2021/10/06 11:16:15;;;;;;;3.42;1.08;;;;;;;;;;5088318;28;20059;-83
2021/10/06 11:18:51;;;;;;;4.40;1.20;;;;;;;;;;5071525;28;20151;-83
2021/10/06 11:21:40;;;;;;;3.78;0.95;;;;;;;;;;5070885;28;20509;-84
2021/10/06 11:24:46;;;;;;;3.28;1.00;;;;;;;;;;5060506;28;20202;-84
2021/10/06 11:27:39;;;;;;;8.82;1.10;;;;;;;;;;5022447;28;20097;-84
2021/10/06 11:30:18;;;;;;;1.30;0.70;;;;;;;;;;5088279;28;20447;-83
2021/10/06 11:32:55;;;;;;;5.82;1.05;;;;;;;;;;5084272;28;20077;-83
2021/10/06 11:35:21;;;;;;;3.53;0.93;;;;;;;;;;5053021;28;20053;-83
2021/10/06 11:37:57;;;;;;;7.20;1.08;;;;;;;;;;5063230;28;20052;-85
2021/10/06 11:40:26;;;;;;;7.13;1.20;;;;;;;;;;5086730;28;20056;-82
2021/10/06 11:42:56;;;;;;;4.38;0.95;;;;;;;;;;5069664;28;20067;-83
2021/10/06 11:45:28;;;;;;;6.35;0.80;;;;;;;;;;5069196;28;20173;-85
2021/10/06 11:48:09;;;;;;;4.18;1.67;;;;;;;;;;5072175;28;20056;-83
2021/10/06 11:54:02;;;;;;;2.47;1.10;;;;;;;;;;5093885;28;20062;-85
2021/10/06 11:56:31;;;;;;;3.40;0.80;;;;;;;;;;4996501;28;20109;-85
2021/10/06 11:59:07;;;;;;;3.70;0.77;;;;;;;;;;5072729;28;20044;-84
2021/10/06 12:01:56;;;;;;;2.80;0.95;;;;;;;;;;5065670;28;20044;-83
2021/10/06 12:04:32;;;;;;;2.38;0.90;;;;;;;;;;5068234;28;20105;-82
2021/10/06 12:07:06;;;;;;;3.83;1.02;;;;;;;;;;5065341;28;20056;-83
2021/10/06 12:10:01;;;;;;;2.50;1.30;;;;;;;;;;5075603;28;20259;-83
2021/10/06 12:12:36;;;;;;;5.07;1.77;;;;;;;;;;5083274;28;20281;-84
2021/10/06 12:15:13;;;;;;;10.45;2.83;;;;;;;;;;5077262;28;20109;-84
2021/10/06 12:17:50;;;;;;;7.55;1.75;;;;;;;;;;5088525;28;20140;-86
2021/10/06 12:20:20;;;;;;;2.88;1.38;;;;;;;;;;5060914;28;20057;-84
2021/10/06 12:23:06;;;;;;;4.53;1.58;;;;;;;;;;5058620;28;20052;-84
2021/10/06 12:25:51;;;;;;;7.40;1.48;;;;;;;;;;5076611;28;20058;-84
2021/10/06 12:28:57;;;;;;;7.07;1.83;;;;;;;;;;5078971;28;20097;-84
2021/10/06 12:31:32;;;;;;;5.82;2.05;;;;;;;;;;5093097;28;20345;-83
2021/10/06 12:34:29;;;;;;;3.33;1.67;;;;;;;;;;5071377;28;20048;-84
2021/10/06 12:37:07;;;;;;;5.50;1.58;;;;;;;;;;5083604;28;20063;-84
2021/10/06 12:39:48;;;;;;;4.00;1.35;;;;;;;;;;5071420;28;20138;-84
2021/10/06 12:42:25;;;;;;;4.43;1.30;;;;;;;;;;5059528;28;20291;-84
2021/10/06 12:44:55;;;;;;;5.40;1.60;;;;;;;;;;5084401;28;20067;-84
2021/10/06 12:47:23;;;;;;;2.42;1.30;;;;;;;;;;5091712;28;20357;-84
2021/10/06 12:50:01;;;;;;;6.43;1.50;;;;;;;;;;5057156;28;20580;-84
2021/10/06 12:52:28;;;;;;;6.35;1.35;;;;;;;;;;5085303;28;20272;-83
2021/10/06 12:55:16;;;;;;;4.53;1.60;;;;;;;;;;5072689;28;20036;-83
2021/10/06 12:57:43;;;;;;;7.35;1.48;;;;;;;;;;5057263;28;20210;-84
2021/10/06 13:00:23;;;;;;;6.90;1.67;;;;;;;;;;5071455;28;20165;-85
2021/10/06 13:02:53;;;;;;;7.18;2.00;;;;;;;;;;5051594;28;20173;-85
2021/10/06 13:05:27;;;;;;;5.25;1.48;;;;;;;;;;5088781;28;20275;-85
2021/10/06 13:07:58;;;;;;;9.00;2.00;;;;;;;;;;5060274;28;20197;-85
2021/10/06 13:10:31;;;;;;;6.05;1.33;;;;;;;;;;5038708;28;20097;-85
2021/10/06 13:13:05;;;;;;;2.75;1.17;;;;;;;;;;5069399;28;20141;-85
2021/10/06 13:15:49;;;;;;;3.38;1.10;;;;;;;;;;5096080;28;20068;-83
2021/10/06 13:18:19;;;;;;;6.13;1.58;;;;;;;;;;5080742;28;20051;-83
2021/10/06 13:20:48;;;;;;;5.57;1.67;;;;;;;;;;5075567;28;20347;-83
2021/10/06 13:23:17;;;;;;;6.68;1.10;;;;;;;;;;5087806;28;20047;-83
2021/10/06 13:25:51;;;;;;;5.78;1.55;;;;;;;;;;5075286;28;20072;-83
2021/10/06 13:28:18;;;;;;;4.38;1.27;;;;;;;;;;5056345;28;20055;-83
2021/10/06 13:30:58;;;;;;;4.35;1.08;;;;;;;;;;5071700;28;20254;-84
2021/10/06 13:33:26;;;;;;;4.05;1.05;;;;;;;;;;5063544;28;20161;-84
2021/10/06 13:35:53;;;;;;;6.78;1.10;;;;;;;;;;5066054;28;20062;-84
2021/10/06 13:38:28;;;;;;;5.63;1.40;;;;;;;;;;5067093;28;20154;-84
2021/10/06 13:41:05;;;;;;;4.20;1.50;;;;;;;;;;5066515;28;20108;-85
2021/10/06 13:43:38;;;;;;;7.28;1.58;;;;;;;;;;5086052;28;20109;-84
2021/10/06 13:46:16;;;;;;;4.18;1.48;;;;;;;;;;5071018;28;20066;-84
2021/10/06 13:48:57;;;;;;;;;;;;;;;;;;;;;
2021/10/06 13:51:46;;;;;;;4.30;1.10;;;;;;;;;;5023733;28;20057;-83
2021/10/06 13:54:22;;;;;;;2.92;1.10;;;;;;;;;;5047271;28;20096;-83
2021/10/06 13:57:04;;;;;;;3.22;1.25;;;;;;;;;;5066539;28;20276;-84
2021/10/06 13:59:53;;;;;;;5.25;1.40;;;;;;;;;;5047489;28;20044;-84
2021/10/06 14:02:31;;;;;;;2.90;1.60;;;;;;;;;;5075174;28;20184;-85
2021/10/06 14:05:06;;;;;;;3.28;1.42;;;;;;;;;;5062736;28;20219;-84
2021/10/06 14:07:39;;;;;;;3.30;1.33;;;;;;;;;;5069969;28;20398;-84
2021/10/06 14:10:16;;;;;;;2.65;1.17;;;;;;;;;;5070177;28;20140;-84
2021/10/06 14:12:54;;;;;;;2.67;1.17;;;;;;;;;;5075619;28;20063;-84
2021/10/06 14:15:37;;;;;;;4.15;1.20;;;;;;;;;;5054999;28;20428;-84
2021/10/06 14:18:08;;;;;;;5.80;1.23;;;;;;;;;;5084623;28;20082;-84
2021/10/06 14:20:55;;;;;;;2.35;1.20;;;;;;;;;;5080661;28;20548;-85
2021/10/06 14:23:24;;;;;;;3.40;1.33;;;;;;;;;;5084972;28;20106;-83
2021/10/06 14:26:02;;;;;;;3.03;1.45;;;;;;;;;;5074184;28;20121;-84
2021/10/06 14:28:29;;;;;;;2.17;1.17;;;;;;;;;;5081659;28;20512;-84
2021/10/06 14:30:57;;;;;;;4.20;1.40;;;;;;;;;;5083580;28;20314;-84
2021/10/06 14:37:00;;;;;;;1.48;1.00;;;;;;;;;;5076530;28;20229;-85
2021/10/06 14:39:26;;;;;;;3.53;1.40;;;;;;;;;;5078914;28;20143;-82
2021/10/06 14:42:06;;;;;;;3.72;1.02;;;;;;;;;;5077411;28;20252;-85
2021/10/06 14:44:41;;;;;;;2.28;1.20;;;;;;;;;;5083542;28;20111;-84
2021/10/06 14:47:11;;;;;;;1.50;1.00;;;;;;;;;;5075669;28;20245;-84
2021/10/06 14:49:42;;;;;;;5.00;1.30;;;;;;;;;;5059392;28;20057;-84
2021/10/06 14:52:09;;;;;;;6.82;1.30;;;;;;;;;;5058296;28;20067;-84
2021/10/06 14:54:35;;;;;;;2.17;1.10;;;;;;;;;;5074426;28;20327;-83
2021/10/06 14:57:08;;;;;;;4.65;1.40;;;;;;;;;;5087957;28;20146;-84
2021/10/06 14:59:36;;;;;;;2.33;1.23;;;;;;;;;;5066783;28;20048;-84
2021/10/06 15:02:04;;;;;;;2.25;1.00;;;;;;;;;;5057596;28;20054;-84
2021/10/06 15:04:34;;;;;;;3.95;1.27;;;;;;;;;;5062046;28;20048;-84
2021/10/06 15:07:02;;;;;;;5.22;1.10;;;;;;;;;;5062432;28;20044;-84
2021/10/06 15:09:33;;;;;;;2.20;1.20;;;;;;;;;;5081748;28;20067;-85
2021/10/06 15:12:02;;;;;;;1.75;1.10;;;;;;;;;;5082899;28;20044;-85
2021/10/06 15:14:31;;;;;;;2.88;1.33;;;;;;;;;;5081081;28;20264;-83
2021/10/06 15:17:04;;;;;;;8.13;1.40;;;;;;;;;;5089341;28;20331;-84
2021/10/06 15:19:32;;;;;;;5.18;1.42;;;;;;;;;;5082418;28;20131;-84
2021/10/06 15:21:59;;;;;;;2.85;1.17;;;;;;;;;;5046884;28;20464;-84
2021/10/06 15:24:28;;;;;;;3.05;1.50;;;;;;;;;;5063711;28;20043;-84
2021/10/06 15:26:55;;;;;;;3.28;1.25;;;;;;;;;;5065036;28;20067;-85
2021/10/06 15:29:23;;;;;;;2.72;1.60;;;;;;;;;;5053351;28;20237;-85